Aviation Digital Data Service (ADDS)

Output produced by METARs form (0021 UTC 20 April 2019)
found at http://www.aviationweather.gov/metar/data/
 
Forecast for: SABE (AEROPARQUE(CIV/M, AR)
Text: TAF SABE 192300Z 2000/2024 30005KT CAVOK TX23/2000Z TN16/2010Z
Forecast period: 0000 to 0400 UTC 20 April 2019
Forecast type: FROM: standard forecast or significant change
Winds: from the WNW (300 degrees) at 6 MPH (5 knots; 2.6 m/s)
Visibility: 6 or more miles 10+ km)
Ceiling: unknown
Clouds: missing
Weather: no significant weather forecast for this period
Text: BECMG 2004/2006 18010KT
Forecast period: 0400 to 1700 UTC 20 April 2019
Forecast type: BECOMING: Conditions expected to become as follows by 0600 UTC 20 April 2019
Winds: from the S (180 degrees) at 12 MPH (10 knots; 5.1 m/s)
Visibility: 6 or more miles 10+ km)
Ceiling: unknown
Clouds: missing
Weather: no significant weather forecast for this period
Text: BECMG 2017/2019 11010KT
Forecast period: 1700 UTC 20 April 2019 to 0000 UTC 21 April 2019
Forecast type: BECOMING: Conditions expected to become as follows by 1900 UTC 20 April 2019
Winds: from the ESE (110 degrees) at 12 MPH (10 knots; 5.1 m/s)
Visibility: 6 or more miles 10+ km)
Ceiling: unknown
Clouds: missing
Weather: no significant weather forecast for this period